地図

経路データ

SID SEASON NUMBER BASIN SUBBASIN NAME ISO_TIME NATURE LAT LON WMO_WIND WMO_PRES WMO_AGENCY TRACK_TYPE DIST2LAND LANDFALL IFLAG USA_AGENCY USA_ATCF_ID USA_LAT USA_LON USA_RECORD USA_STATUS USA_WIND USA_PRES USA_SSHS USA_R34_NE USA_R34_SE USA_R34_SW USA_R34_NW USA_R50_NE USA_R50_SE USA_R50_SW USA_R50_NW USA_R64_NE USA_R64_SE USA_R64_SW USA_R64_NW USA_POCI USA_ROCI USA_RMW USA_EYE TOKYO_LAT TOKYO_LON TOKYO_GRADE TOKYO_WIND TOKYO_PRES TOKYO_R50_DIR TOKYO_R50_LONG TOKYO_R50_SHORT TOKYO_R30_DIR TOKYO_R30_LONG TOKYO_R30_SHORT TOKYO_LAND CMA_LAT CMA_LON CMA_CAT CMA_WIND CMA_PRES HKO_LAT HKO_LON HKO_CAT HKO_WIND HKO_PRES NEWDELHI_LAT NEWDELHI_LON NEWDELHI_GRADE NEWDELHI_WIND NEWDELHI_PRES NEWDELHI_CI NEWDELHI_DP NEWDELHI_POCI REUNION_LAT REUNION_LON REUNION_TYPE REUNION_WIND REUNION_PRES REUNION_TNUM REUNION_CI REUNION_RMW REUNION_R34_NE REUNION_R34_SE REUNION_R34_SW REUNION_R34_NW REUNION_R50_NE REUNION_R50_SE REUNION_R50_SW REUNION_R50_NW REUNION_R64_NE REUNION_R64_SE REUNION_R64_SW REUNION_R64_NW BOM_LAT BOM_LON BOM_TYPE BOM_WIND BOM_PRES BOM_TNUM BOM_CI BOM_RMW BOM_R34_NE BOM_R34_SE BOM_R34_SW BOM_R34_NW BOM_R50_NE BOM_R50_SE BOM_R50_SW BOM_R50_NW BOM_R64_NE BOM_R64_SE BOM_R64_SW BOM_R64_NW BOM_ROCI BOM_POCI BOM_EYE BOM_POS_METHOD BOM_PRES_METHOD NADI_LAT NADI_LON NADI_CAT NADI_WIND NADI_PRES WELLINGTON_LAT WELLINGTON_LON WELLINGTON_WIND WELLINGTON_PRES DS824_LAT DS824_LON DS824_STAGE DS824_WIND DS824_PRES TD9636_LAT TD9636_LON TD9636_STAGE TD9636_WIND TD9636_PRES TD9635_LAT TD9635_LON TD9635_WIND TD9635_PRES TD9635_ROCI NEUMANN_LAT NEUMANN_LON NEUMANN_CLASS NEUMANN_WIND NEUMANN_PRES MLC_LAT MLC_LON MLC_CLASS MLC_WIND MLC_PRES USA_GUST BOM_GUST BOM_GUST_PER REUNION_GUST REUNION_GUST_PER USA_SEAHGT USA_SEARAD_NE USA_SEARAD_SE USA_SEARAD_SW USA_SEARAD_NW STORM_SPEED STORM_DIR
1955264N19087 1955 74 NI BB NOT_NAMED 1955-09-20 18:00:00 TS 19.3000 87.3000 main 122 99 O________O____ jtwc_io IO081955 19.3000 87.3000 -1 19.3000 87.3000 TC 3 292
1955264N19087 1955 74 NI BB NOT_NAMED 1955-09-20 21:00:00 TS 19.3625 87.1301 main 99 85 P________P____ IO081955 19.3625 87.1301 -1 19.3625 87.1301 TC 4 285
1955264N19087 1955 74 NI BB NOT_NAMED 1955-09-21 00:00:00 TS 19.4000 86.9000 main 85 70 O________O____ jtwc_io IO081955 19.4000 86.9000 -1 19.4000 86.9000 TC 25 5 274
1955264N19087 1955 74 NI BB NOT_NAMED 1955-09-21 03:00:00 TS 19.4000 86.5755 main 70 56 P________PO___ IO081955 19.4000 86.5724 -1 19.4000 86.5724 TC 25 19.4000 86.6000 1 7 271
1955264N19087 1955 74 NI BB NOT_NAMED 1955-09-21 06:00:00 TS 19.4121 86.2002 main 56 35 O________OP___ jtwc_io IO081955 19.4000 86.2000 -1 19.4000 86.2000 TC 25 19.4606 86.2009 1 7 275
1955264N19087 1955 74 NI BB NOT_NAMED 1955-09-21 09:00:00 TS 19.4572 85.8448 main 33 15 P________PP___ IO081955 19.4349 85.8575 -1 19.4349 85.8575 TC 25 19.5166 85.8112 1 7 279
1955264N19087 1955 74 NI BB NOT_NAMED 1955-09-21 12:00:00 TS 19.5214 85.4803 main 15 0 O________OP___ jtwc_io IO081955 19.5000 85.5000 -1 19.5000 85.5000 TC 25 19.5643 85.4410 1 7 281
1955264N19087 1955 74 NI BB NOT_NAMED 1955-09-21 15:00:00 TS 19.6000 85.1001 main 0 0 P________PO___ IO081955 19.6000 85.1001 -1 19.6000 85.1001 TC 25 19.6000 85.1000 1 7 282
1955264N19087 1955 74 NI BB NOT_NAMED 1955-09-21 18:00:00 TS 19.6752 84.7295 main 0 0 O________OP___ jtwc_io IO081955 19.7000 84.7000 -1 19.7000 84.7000 TC 25 19.6257 84.7885 1 7 280
1955264N19087 1955 74 NI BB NOT_NAMED 1955-09-21 21:00:00 TS 19.7165 84.3990 main 0 0 P________PP___ IO081955 19.7422 84.3648 -1 19.7422 84.3648 TC 25 19.6652 84.4675 1 7 279
1955264N19087 1955 74 NI BB NOT_NAMED 1955-09-22 00:00:00 TS 19.7824 84.0293 main 0 0 O________OP___ jtwc_io IO081955 19.8000 84.0000 -1 19.8000 84.0000 TC 25 19.7471 84.0879 1 8 284
1955264N19087 1955 74 NI BB NOT_NAMED 1955-09-22 03:00:00 TS 19.9030 83.5830 main 0 0 P________PO___ IO081955 19.9045 83.5744 -1 19.9045 83.5744 TC 25 19.9000 83.6000 1 11 288
1955264N19087 1955 74 NI BB NOT_NAMED 1955-09-22 06:00:00 TS 20.1077 82.9641 main 0 0 O________OP___ jtwc_io IO081955 20.1000 83.0000 -1 20.1000 83.0000 TC 25 20.1230 82.8922 1 14 291
1955264N19087 1955 74 NI BB NOT_NAMED 1955-09-22 09:00:00 TS 20.4099 82.1472 main 0 0 P________PP___ IO081955 20.4056 82.1802 -1 20.4056 82.1802 TC 25 20.4184 82.0812 1 17 294
1955264N19087 1955 74 NI BB NOT_NAMED 1955-09-22 12:00:00 TS 20.7931 81.2848 main 0 0 O________OP___ jtwc_io IO081955 20.8000 81.3000 -1 20.8000 81.3000 TC 25 20.7793 81.2544 1 17 298
1955264N19087 1955 74 NI BB NOT_NAMED 1955-09-22 15:00:00 TS 21.2182 80.5266 main 0 0 P________PO___ IO081955 21.2273 80.5399 -1 21.2273 80.5399 TC 25 21.2000 80.5000 1 16 305
1955264N19087 1955 74 NI BB NOT_NAMED 1955-09-22 18:00:00 TS 21.6900 79.8941 main 0 0 O________OP___ jtwc_io IO081955 21.7000 79.9000 -1 21.7000 79.9000 TC 25 21.6750 79.8853 1 14 313
1955264N19087 1955 74 NI BB NOT_NAMED 1955-09-22 21:00:00 TS 22.1941 79.4007 main 0 0 P________PP___ IO081955 22.1951 79.4079 -1 22.1951 79.4079 TC 25 22.1928 79.3911 1 13 321
1955264N19087 1955 74 NI BB NOT_NAMED 1955-09-23 00:00:00 TS 22.7196 78.9882 main 0 0 O________OP___ jtwc_io IO081955 22.7000 79.0000 -1 22.7000 79.0000 TC 25 22.7393 78.9764 1 13 326
1955264N19087 1955 74 NI BB NOT_NAMED 1955-09-23 03:00:00 NR 23.3000 78.6000 main 0 __________O___ IO081955 -1 TC 23.3000 78.6000 1 14 328

IBTrACS Databaseについて

本データベースは、米国NOAAが公開する1842年以降の世界の熱帯低気圧のベストトラックデータアーカイブInternational Best Track Archive for Climate Stewardship (IBTrACS)を、ウェブで閲覧しやすい形式に変換したものです。

最終更新日:2021-12-08